sensor_id;sensor_type;location;lat;lon;timestamp;P1;durP1;ratioP1;P2;durP2;ratioP2
6095;SDS011;25081;42.698;23.298;2023-07-16T00:00:09;14.20;;;11.90;;
6095;SDS011;25081;42.698;23.298;2023-07-16T00:02:20;14.93;;;11.00;;
6095;SDS011;25081;42.698;23.298;2023-07-16T00:04:31;12.37;;;11.07;;
6095;SDS011;25081;42.698;23.298;2023-07-16T00:06:41;14.70;;;11.10;;
6095;SDS011;25081;42.698;23.298;2023-07-16T00:08:52;13.40;;;11.80;;
6095;SDS011;25081;42.698;23.298;2023-07-16T00:11:04;19.00;;;11.10;;
6095;SDS011;25081;42.698;23.298;2023-07-16T00:13:14;12.90;;;10.63;;
6095;SDS011;25081;42.698;23.298;2023-07-16T00:15:25;13.43;;;10.30;;
6095;SDS011;25081;42.698;23.298;2023-07-16T00:17:36;13.43;;;10.70;;
6095;SDS011;25081;42.698;23.298;2023-07-16T00:19:46;13.87;;;10.47;;
6095;SDS011;25081;42.698;23.298;2023-07-16T00:21:57;12.27;;;9.63;;
6095;SDS011;25081;42.698;23.298;2023-07-16T00:24:07;14.37;;;9.60;;
6095;SDS011;25081;42.698;23.298;2023-07-16T00:26:18;11.83;;;10.03;;
6095;SDS011;25081;42.698;23.298;2023-07-16T00:28:29;13.43;;;10.33;;
6095;SDS011;25081;42.698;23.298;2023-07-16T00:30:39;12.10;;;8.87;;
6095;SDS011;25081;42.698;23.298;2023-07-16T00:32:50;14.30;;;10.10;;
6095;SDS011;25081;42.698;23.298;2023-07-16T00:35:01;12.37;;;9.10;;
6095;SDS011;25081;42.698;23.298;2023-07-16T00:37:11;12.83;;;9.97;;
6095;SDS011;25081;42.698;23.298;2023-07-16T00:39:22;9.30;;;8.30;;
6095;SDS011;25081;42.698;23.298;2023-07-16T00:41:32;11.40;;;8.87;;
6095;SDS011;25081;42.698;23.298;2023-07-16T00:43:43;11.93;;;8.87;;
6095;SDS011;25081;42.698;23.298;2023-07-16T00:45:53;13.10;;;9.50;;
6095;SDS011;25081;42.698;23.298;2023-07-16T00:48:05;13.47;;;9.20;;
6095;SDS011;25081;42.698;23.298;2023-07-16T00:50:15;10.50;;;9.10;;
6095;SDS011;25081;42.698;23.298;2023-07-16T00:52:26;10.00;;;8.60;;
6095;SDS011;25081;42.698;23.298;2023-07-16T00:54:37;10.80;;;9.70;;
6095;SDS011;25081;42.698;23.298;2023-07-16T00:56:47;14.40;;;9.70;;
6095;SDS011;25081;42.698;23.298;2023-07-16T00:58:58;10.60;;;9.37;;
6095;SDS011;25081;42.698;23.298;2023-07-16T01:01:08;10.10;;;7.90;;
6095;SDS011;25081;42.698;23.298;2023-07-16T01:03:19;12.20;;;9.20;;
6095;SDS011;25081;42.698;23.298;2023-07-16T01:05:30;8.13;;;7.33;;
6095;SDS011;25081;42.698;23.298;2023-07-16T01:07:41;11.40;;;8.47;;
6095;SDS011;25081;42.698;23.298;2023-07-16T01:09:51;11.57;;;8.70;;
6095;SDS011;25081;42.698;23.298;2023-07-16T01:12:02;11.47;;;9.10;;
6095;SDS011;25081;42.698;23.298;2023-07-16T01:14:16;12.17;;;7.47;;
6095;SDS011;25081;42.698;23.298;2023-07-16T01:16:25;13.53;;;8.17;;
6095;SDS011;25081;42.698;23.298;2023-07-16T01:18:35;12.10;;;7.23;;
6095;SDS011;25081;42.698;23.298;2023-07-16T01:20:46;7.93;;;7.13;;
6095;SDS011;25081;42.698;23.298;2023-07-16T01:23:04;10.77;;;8.00;;
6095;SDS011;25081;42.698;23.298;2023-07-16T01:25:26;9.37;;;8.00;;
6095;SDS011;25081;42.698;23.298;2023-07-16T01:30:41;11.33;;;7.83;;
6095;SDS011;25081;42.698;23.298;2023-07-16T01:32:51;10.43;;;7.00;;
6095;SDS011;25081;42.698;23.298;2023-07-16T01:35:02;13.97;;;7.17;;
6095;SDS011;25081;42.698;23.298;2023-07-16T01:37:13;11.83;;;8.20;;
6095;SDS011;25081;42.698;23.298;2023-07-16T01:39:24;16.17;;;7.40;;
6095;SDS011;25081;42.698;23.298;2023-07-16T01:41:34;10.60;;;7.50;;
6095;SDS011;25081;42.698;23.298;2023-07-16T01:43:45;10.63;;;7.60;;
6095;SDS011;25081;42.698;23.298;2023-07-16T01:45:55;10.77;;;7.60;;
6095;SDS011;25081;42.698;23.298;2023-07-16T01:48:09;9.03;;;7.60;;
6095;SDS011;25081;42.698;23.298;2023-07-16T01:50:19;10.20;;;7.77;;
6095;SDS011;25081;42.698;23.298;2023-07-16T01:52:30;9.20;;;7.13;;
6095;SDS011;25081;42.698;23.298;2023-07-16T01:54:40;10.07;;;6.93;;
6095;SDS011;25081;42.698;23.298;2023-07-16T01:56:51;12.77;;;7.07;;
6095;SDS011;25081;42.698;23.298;2023-07-16T01:59:01;14.40;;;7.60;;
6095;SDS011;25081;42.698;23.298;2023-07-16T02:01:11;10.40;;;7.40;;
6095;SDS011;25081;42.698;23.298;2023-07-16T02:03:22;13.70;;;7.30;;
6095;SDS011;25081;42.698;23.298;2023-07-16T02:05:33;11.60;;;7.97;;
6095;SDS011;25081;42.698;23.298;2023-07-16T02:07:43;8.47;;;6.50;;
6095;SDS011;25081;42.698;23.298;2023-07-16T02:09:54;13.47;;;7.27;;
6095;SDS011;25081;42.698;23.298;2023-07-16T02:12:05;12.30;;;7.47;;
6095;SDS011;25081;42.698;23.298;2023-07-16T02:14:16;8.60;;;7.07;;
6095;SDS011;25081;42.698;23.298;2023-07-16T02:16:27;8.47;;;6.90;;
6095;SDS011;25081;42.698;23.298;2023-07-16T02:18:37;8.33;;;7.10;;
6095;SDS011;25081;42.698;23.298;2023-07-16T02:20:48;9.67;;;8.67;;
6095;SDS011;25081;42.698;23.298;2023-07-16T02:22:59;12.33;;;7.27;;
6095;SDS011;25081;42.698;23.298;2023-07-16T02:25:09;8.70;;;7.10;;
6095;SDS011;25081;42.698;23.298;2023-07-16T02:27:20;9.87;;;8.23;;
6095;SDS011;25081;42.698;23.298;2023-07-16T02:29:30;13.90;;;8.17;;
6095;SDS011;25081;42.698;23.298;2023-07-16T02:31:41;9.70;;;7.37;;
6095;SDS011;25081;42.698;23.298;2023-07-16T02:33:52;14.60;;;7.40;;
6095;SDS011;25081;42.698;23.298;2023-07-16T02:36:03;11.70;;;7.80;;
6095;SDS011;25081;42.698;23.298;2023-07-16T02:38:14;11.40;;;8.00;;
6095;SDS011;25081;42.698;23.298;2023-07-16T02:40:24;9.83;;;7.67;;
6095;SDS011;25081;42.698;23.298;2023-07-16T02:42:35;12.30;;;7.90;;
6095;SDS011;25081;42.698;23.298;2023-07-16T02:44:45;10.57;;;7.63;;
6095;SDS011;25081;42.698;23.298;2023-07-16T02:46:56;8.70;;;7.07;;
6095;SDS011;25081;42.698;23.298;2023-07-16T02:49:06;10.27;;;6.93;;
6095;SDS011;25081;42.698;23.298;2023-07-16T02:51:17;8.27;;;7.47;;
6095;SDS011;25081;42.698;23.298;2023-07-16T02:53:28;9.27;;;7.00;;
6095;SDS011;25081;42.698;23.298;2023-07-16T02:55:38;7.30;;;6.47;;
6095;SDS011;25081;42.698;23.298;2023-07-16T02:57:49;9.00;;;7.17;;
6095;SDS011;25081;42.698;23.298;2023-07-16T02:59:59;10.40;;;7.33;;
6095;SDS011;25081;42.698;23.298;2023-07-16T03:02:10;12.50;;;6.90;;
6095;SDS011;25081;42.698;23.298;2023-07-16T03:04:20;12.30;;;7.57;;
6095;SDS011;25081;42.698;23.298;2023-07-16T03:06:31;7.20;;;6.10;;
6095;SDS011;25081;42.698;23.298;2023-07-16T03:08:41;7.30;;;6.60;;
6095;SDS011;25081;42.698;23.298;2023-07-16T03:10:52;9.77;;;6.57;;
6095;SDS011;25081;42.698;23.298;2023-07-16T03:13:02;8.00;;;6.30;;
6095;SDS011;25081;42.698;23.298;2023-07-16T03:15:13;11.13;;;7.43;;
6095;SDS011;25081;42.698;23.298;2023-07-16T03:17:23;9.10;;;7.03;;
6095;SDS011;25081;42.698;23.298;2023-07-16T03:19:34;11.50;;;6.60;;
6095;SDS011;25081;42.698;23.298;2023-07-16T03:21:44;10.77;;;7.37;;
6095;SDS011;25081;42.698;23.298;2023-07-16T03:23:55;7.33;;;6.10;;
6095;SDS011;25081;42.698;23.298;2023-07-16T03:26:06;15.43;;;7.50;;
6095;SDS011;25081;42.698;23.298;2023-07-16T03:28:16;9.97;;;7.57;;
6095;SDS011;25081;42.698;23.298;2023-07-16T03:30:27;7.30;;;6.03;;
6095;SDS011;25081;42.698;23.298;2023-07-16T03:32:38;10.13;;;6.93;;
6095;SDS011;25081;42.698;23.298;2023-07-16T03:34:48;7.70;;;6.90;;
6095;SDS011;25081;42.698;23.298;2023-07-16T03:36:58;10.67;;;7.27;;
6095;SDS011;25081;42.698;23.298;2023-07-16T03:39:09;7.37;;;5.83;;
6095;SDS011;25081;42.698;23.298;2023-07-16T03:41:19;11.83;;;6.60;;
6095;SDS011;25081;42.698;23.298;2023-07-16T03:43:30;9.40;;;5.90;;
6095;SDS011;25081;42.698;23.298;2023-07-16T03:45:40;10.53;;;6.07;;
6095;SDS011;25081;42.698;23.298;2023-07-16T03:47:51;7.63;;;6.33;;
6095;SDS011;25081;42.698;23.298;2023-07-16T03:50:02;8.90;;;6.50;;
6095;SDS011;25081;42.698;23.298;2023-07-16T03:52:13;13.50;;;6.07;;
6095;SDS011;25081;42.698;23.298;2023-07-16T03:54:23;6.67;;;5.50;;
6095;SDS011;25081;42.698;23.298;2023-07-16T03:56:34;8.80;;;6.33;;
6095;SDS011;25081;42.698;23.298;2023-07-16T03:58:45;9.00;;;6.20;;
6095;SDS011;25081;42.698;23.298;2023-07-16T04:00:55;11.17;;;6.40;;
6095;SDS011;25081;42.698;23.298;2023-07-16T04:03:05;11.27;;;6.50;;
6095;SDS011;25081;42.698;23.298;2023-07-16T04:05:16;10.77;;;6.27;;
6095;SDS011;25081;42.698;23.298;2023-07-16T04:07:27;8.70;;;6.90;;
6095;SDS011;25081;42.698;23.298;2023-07-16T04:09:38;11.70;;;6.30;;
6095;SDS011;25081;42.698;23.298;2023-07-16T04:11:48;8.90;;;5.60;;
6095;SDS011;25081;42.698;23.298;2023-07-16T04:13:59;11.53;;;6.77;;
6095;SDS011;25081;42.698;23.298;2023-07-16T04:16:09;11.57;;;7.03;;
6095;SDS011;25081;42.698;23.298;2023-07-16T04:18:21;10.73;;;6.90;;
6095;SDS011;25081;42.698;23.298;2023-07-16T04:20:31;8.67;;;5.97;;
6095;SDS011;25081;42.698;23.298;2023-07-16T04:22:42;7.10;;;6.13;;
6095;SDS011;25081;42.698;23.298;2023-07-16T04:24:53;7.03;;;6.33;;
6095;SDS011;25081;42.698;23.298;2023-07-16T04:27:04;8.87;;;6.97;;
6095;SDS011;25081;42.698;23.298;2023-07-16T04:29:15;9.60;;;6.63;;
6095;SDS011;25081;42.698;23.298;2023-07-16T04:31:25;9.50;;;6.93;;
6095;SDS011;25081;42.698;23.298;2023-07-16T04:33:36;8.70;;;7.07;;
6095;SDS011;25081;42.698;23.298;2023-07-16T04:35:46;7.33;;;6.60;;
6095;SDS011;25081;42.698;23.298;2023-07-16T04:37:57;9.03;;;6.43;;
6095;SDS011;25081;42.698;23.298;2023-07-16T04:40:09;7.00;;;6.30;;
6095;SDS011;25081;42.698;23.298;2023-07-16T04:42:20;12.00;;;6.97;;
6095;SDS011;25081;42.698;23.298;2023-07-16T04:44:30;10.83;;;6.17;;
6095;SDS011;25081;42.698;23.298;2023-07-16T04:46:41;9.23;;;6.57;;
6095;SDS011;25081;42.698;23.298;2023-07-16T04:48:51;13.53;;;6.83;;
6095;SDS011;25081;42.698;23.298;2023-07-16T04:51:02;8.70;;;6.50;;
6095;SDS011;25081;42.698;23.298;2023-07-16T04:53:13;11.67;;;6.40;;
6095;SDS011;25081;42.698;23.298;2023-07-16T04:55:23;7.90;;;7.10;;
6095;SDS011;25081;42.698;23.298;2023-07-16T04:57:34;7.90;;;6.30;;
6095;SDS011;25081;42.698;23.298;2023-07-16T04:59:44;11.70;;;6.20;;
6095;SDS011;25081;42.698;23.298;2023-07-16T05:01:56;7.30;;;6.30;;
6095;SDS011;25081;42.698;23.298;2023-07-16T05:04:06;8.10;;;6.73;;
6095;SDS011;25081;42.698;23.298;2023-07-16T05:06:17;7.27;;;6.20;;
6095;SDS011;25081;42.698;23.298;2023-07-16T05:08:27;8.53;;;6.33;;
6095;SDS011;25081;42.698;23.298;2023-07-16T05:10:38;7.60;;;5.80;;
6095;SDS011;25081;42.698;23.298;2023-07-16T05:12:48;7.77;;;5.40;;
6095;SDS011;25081;42.698;23.298;2023-07-16T05:14:59;7.70;;;6.50;;
6095;SDS011;25081;42.698;23.298;2023-07-16T05:17:09;8.70;;;5.73;;
6095;SDS011;25081;42.698;23.298;2023-07-16T05:19:20;8.67;;;5.50;;
6095;SDS011;25081;42.698;23.298;2023-07-16T05:21:30;6.43;;;5.67;;
6095;SDS011;25081;42.698;23.298;2023-07-16T05:23:41;6.27;;;5.67;;
6095;SDS011;25081;42.698;23.298;2023-07-16T05:25:51;10.70;;;5.80;;
6095;SDS011;25081;42.698;23.298;2023-07-16T05:28:02;6.60;;;5.87;;
6095;SDS011;25081;42.698;23.298;2023-07-16T05:30:13;6.53;;;5.83;;
6095;SDS011;25081;42.698;23.298;2023-07-16T05:32:24;7.80;;;6.00;;
6095;SDS011;25081;42.698;23.298;2023-07-16T05:34:34;6.40;;;5.80;;
6095;SDS011;25081;42.698;23.298;2023-07-16T05:36:45;23.53;;;6.20;;
6095;SDS011;25081;42.698;23.298;2023-07-16T05:38:55;8.00;;;5.83;;
6095;SDS011;25081;42.698;23.298;2023-07-16T05:41:06;9.43;;;5.73;;
6095;SDS011;25081;42.698;23.298;2023-07-16T05:43:16;6.47;;;5.77;;
6095;SDS011;25081;42.698;23.298;2023-07-16T05:45:27;8.27;;;5.53;;
6095;SDS011;25081;42.698;23.298;2023-07-16T05:47:37;6.70;;;5.93;;
6095;SDS011;25081;42.698;23.298;2023-07-16T05:49:48;6.50;;;5.37;;
6095;SDS011;25081;42.698;23.298;2023-07-16T05:51:58;10.10;;;5.00;;
6095;SDS011;25081;42.698;23.298;2023-07-16T05:54:09;7.23;;;5.60;;
6095;SDS011;25081;42.698;23.298;2023-07-16T05:56:19;8.10;;;5.57;;
6095;SDS011;25081;42.698;23.298;2023-07-16T05:58:29;8.23;;;5.60;;
6095;SDS011;25081;42.698;23.298;2023-07-16T06:00:40;10.97;;;5.80;;
6095;SDS011;25081;42.698;23.298;2023-07-16T06:02:50;7.03;;;5.20;;
6095;SDS011;25081;42.698;23.298;2023-07-16T06:05:01;9.30;;;5.90;;
6095;SDS011;25081;42.698;23.298;2023-07-16T06:07:13;6.10;;;5.50;;
6095;SDS011;25081;42.698;23.298;2023-07-16T06:09:23;7.77;;;5.57;;
6095;SDS011;25081;42.698;23.298;2023-07-16T06:11:34;6.03;;;5.33;;
6095;SDS011;25081;42.698;23.298;2023-07-16T06:13:44;11.10;;;6.10;;
6095;SDS011;25081;42.698;23.298;2023-07-16T06:15:55;8.07;;;5.60;;
6095;SDS011;25081;42.698;23.298;2023-07-16T06:18:05;8.33;;;5.70;;
6095;SDS011;25081;42.698;23.298;2023-07-16T06:20:16;7.50;;;5.70;;
6095;SDS011;25081;42.698;23.298;2023-07-16T06:22:27;7.40;;;6.50;;
6095;SDS011;25081;42.698;23.298;2023-07-16T06:24:37;7.27;;;6.23;;
6095;SDS011;25081;42.698;23.298;2023-07-16T06:26:48;6.80;;;5.80;;
6095;SDS011;25081;42.698;23.298;2023-07-16T06:28:58;6.50;;;5.90;;
6095;SDS011;25081;42.698;23.298;2023-07-16T06:31:09;7.97;;;5.00;;
6095;SDS011;25081;42.698;23.298;2023-07-16T06:33:19;10.50;;;6.30;;
6095;SDS011;25081;42.698;23.298;2023-07-16T06:35:30;9.70;;;5.57;;
6095;SDS011;25081;42.698;23.298;2023-07-16T06:37:40;6.40;;;5.40;;
6095;SDS011;25081;42.698;23.298;2023-07-16T06:39:51;8.83;;;6.17;;
6095;SDS011;25081;42.698;23.298;2023-07-16T06:42:01;8.30;;;6.00;;
6095;SDS011;25081;42.698;23.298;2023-07-16T06:44:12;8.07;;;6.43;;
6095;SDS011;25081;42.698;23.298;2023-07-16T06:46:23;10.03;;;5.87;;
6095;SDS011;25081;42.698;23.298;2023-07-16T06:48:33;8.90;;;6.60;;
6095;SDS011;25081;42.698;23.298;2023-07-16T06:50:44;8.10;;;6.57;;
6095;SDS011;25081;42.698;23.298;2023-07-16T06:52:54;7.43;;;5.90;;
6095;SDS011;25081;42.698;23.298;2023-07-16T06:55:06;9.77;;;7.10;;
6095;SDS011;25081;42.698;23.298;2023-07-16T06:57:17;5.73;;;5.13;;
6095;SDS011;25081;42.698;23.298;2023-07-16T06:59:27;7.53;;;6.03;;
6095;SDS011;25081;42.698;23.298;2023-07-16T07:01:38;6.40;;;5.80;;
6095;SDS011;25081;42.698;23.298;2023-07-16T07:03:48;9.23;;;6.10;;
6095;SDS011;25081;42.698;23.298;2023-07-16T07:06:01;8.83;;;5.83;;
6095;SDS011;25081;42.698;23.298;2023-07-16T07:08:11;6.87;;;6.00;;
6095;SDS011;25081;42.698;23.298;2023-07-16T07:10:22;7.80;;;5.67;;
6095;SDS011;25081;42.698;23.298;2023-07-16T07:12:33;8.03;;;5.90;;
6095;SDS011;25081;42.698;23.298;2023-07-16T07:14:43;8.80;;;6.13;;
6095;SDS011;25081;42.698;23.298;2023-07-16T07:16:54;7.93;;;6.70;;
6095;SDS011;25081;42.698;23.298;2023-07-16T07:19:04;7.97;;;6.37;;
6095;SDS011;25081;42.698;23.298;2023-07-16T07:21:15;7.87;;;5.90;;
6095;SDS011;25081;42.698;23.298;2023-07-16T07:23:25;8.73;;;6.67;;
6095;SDS011;25081;42.698;23.298;2023-07-16T07:25:36;15.13;;;6.73;;
6095;SDS011;25081;42.698;23.298;2023-07-16T07:27:46;9.43;;;6.50;;
6095;SDS011;25081;42.698;23.298;2023-07-16T07:29:56;8.80;;;6.83;;
6095;SDS011;25081;42.698;23.298;2023-07-16T07:32:08;9.47;;;5.97;;
6095;SDS011;25081;42.698;23.298;2023-07-16T07:34:19;12.70;;;6.87;;
6095;SDS011;25081;42.698;23.298;2023-07-16T07:36:29;7.90;;;5.93;;
6095;SDS011;25081;42.698;23.298;2023-07-16T07:38:40;7.60;;;6.10;;
6095;SDS011;25081;42.698;23.298;2023-07-16T07:40:50;7.00;;;5.23;;
6095;SDS011;25081;42.698;23.298;2023-07-16T07:43:01;7.83;;;6.20;;
6095;SDS011;25081;42.698;23.298;2023-07-16T07:45:11;6.97;;;6.20;;
6095;SDS011;25081;42.698;23.298;2023-07-16T07:47:22;8.17;;;5.97;;
6095;SDS011;25081;42.698;23.298;2023-07-16T07:49:32;9.63;;;6.00;;
6095;SDS011;25081;42.698;23.298;2023-07-16T07:51:43;6.80;;;6.10;;
6095;SDS011;25081;42.698;23.298;2023-07-16T07:53:53;8.70;;;5.90;;
6095;SDS011;25081;42.698;23.298;2023-07-16T07:56:04;6.67;;;5.60;;
6095;SDS011;25081;42.698;23.298;2023-07-16T07:58:15;8.03;;;5.67;;
6095;SDS011;25081;42.698;23.298;2023-07-16T08:00:25;7.40;;;5.77;;
6095;SDS011;25081;42.698;23.298;2023-07-16T08:02:35;8.37;;;5.70;;
6095;SDS011;25081;42.698;23.298;2023-07-16T08:04:46;6.90;;;6.17;;
6095;SDS011;25081;42.698;23.298;2023-07-16T08:06:57;8.73;;;6.90;;
6095;SDS011;25081;42.698;23.298;2023-07-16T08:09:07;8.40;;;6.50;;
6095;SDS011;25081;42.698;23.298;2023-07-16T08:11:18;10.27;;;6.17;;
6095;SDS011;25081;42.698;23.298;2023-07-16T08:13:28;10.10;;;9.10;;
6095;SDS011;25081;42.698;23.298;2023-07-16T08:15:39;17.57;;;13.60;;
6095;SDS011;25081;42.698;23.298;2023-07-16T08:17:49;8.10;;;6.70;;
6095;SDS011;25081;42.698;23.298;2023-07-16T08:20:00;6.30;;;5.67;;
6095;SDS011;25081;42.698;23.298;2023-07-16T08:22:11;9.60;;;6.70;;
6095;SDS011;25081;42.698;23.298;2023-07-16T08:24:22;9.60;;;6.70;;
6095;SDS011;25081;42.698;23.298;2023-07-16T08:26:32;8.50;;;6.30;;
6095;SDS011;25081;42.698;23.298;2023-07-16T08:28:42;7.43;;;6.20;;
6095;SDS011;25081;42.698;23.298;2023-07-16T08:30:53;12.10;;;7.60;;
6095;SDS011;25081;42.698;23.298;2023-07-16T08:33:03;7.87;;;6.20;;
6095;SDS011;25081;42.698;23.298;2023-07-16T08:35:15;8.27;;;7.07;;
6095;SDS011;25081;42.698;23.298;2023-07-16T08:37:25;7.27;;;6.30;;
6095;SDS011;25081;42.698;23.298;2023-07-16T08:39:36;12.63;;;7.17;;
6095;SDS011;25081;42.698;23.298;2023-07-16T08:41:46;12.93;;;7.40;;
6095;SDS011;25081;42.698;23.298;2023-07-16T08:43:57;8.93;;;7.67;;
6095;SDS011;25081;42.698;23.298;2023-07-16T08:46:07;7.93;;;7.07;;
6095;SDS011;25081;42.698;23.298;2023-07-16T08:48:18;11.50;;;7.50;;
6095;SDS011;25081;42.698;23.298;2023-07-16T08:50:28;8.63;;;7.77;;
6095;SDS011;25081;42.698;23.298;2023-07-16T08:52:39;9.03;;;7.80;;
6095;SDS011;25081;42.698;23.298;2023-07-16T08:54:49;8.60;;;6.43;;
6095;SDS011;25081;42.698;23.298;2023-07-16T08:57:00;9.87;;;6.80;;
6095;SDS011;25081;42.698;23.298;2023-07-16T08:59:10;10.10;;;7.07;;
6095;SDS011;25081;42.698;23.298;2023-07-16T09:01:21;9.10;;;7.30;;
6095;SDS011;25081;42.698;23.298;2023-07-16T09:03:32;9.23;;;7.30;;
6095;SDS011;25081;42.698;23.298;2023-07-16T09:05:42;7.93;;;6.53;;
6095;SDS011;25081;42.698;23.298;2023-07-16T09:07:53;8.00;;;7.30;;
6095;SDS011;25081;42.698;23.298;2023-07-16T09:10:04;8.60;;;7.70;;
6095;SDS011;25081;42.698;23.298;2023-07-16T09:12:16;10.80;;;8.00;;
6095;SDS011;25081;42.698;23.298;2023-07-16T09:14:27;8.03;;;7.23;;
6095;SDS011;25081;42.698;23.298;2023-07-16T09:16:37;10.00;;;8.20;;
6095;SDS011;25081;42.698;23.298;2023-07-16T09:18:48;14.10;;;7.23;;
6095;SDS011;25081;42.698;23.298;2023-07-16T09:20:59;8.67;;;7.77;;
6095;SDS011;25081;42.698;23.298;2023-07-16T09:23:09;8.27;;;7.47;;
6095;SDS011;25081;42.698;23.298;2023-07-16T09:25:19;9.33;;;7.57;;
6095;SDS011;25081;42.698;23.298;2023-07-16T09:27:30;14.07;;;7.07;;
6095;SDS011;25081;42.698;23.298;2023-07-16T09:29:40;8.93;;;7.60;;
6095;SDS011;25081;42.698;23.298;2023-07-16T09:31:52;8.67;;;7.73;;
6095;SDS011;25081;42.698;23.298;2023-07-16T09:34:03;8.30;;;7.33;;
6095;SDS011;25081;42.698;23.298;2023-07-16T09:36:21;11.03;;;8.27;;
6095;SDS011;25081;42.698;23.298;2023-07-16T09:38:32;9.17;;;8.10;;
6095;SDS011;25081;42.698;23.298;2023-07-16T09:40:43;9.20;;;7.23;;
6095;SDS011;25081;42.698;23.298;2023-07-16T09:42:53;9.47;;;7.87;;
6095;SDS011;25081;42.698;23.298;2023-07-16T09:45:05;9.03;;;8.13;;
6095;SDS011;25081;42.698;23.298;2023-07-16T09:47:16;8.63;;;7.27;;
6095;SDS011;25081;42.698;23.298;2023-07-16T09:49:28;9.57;;;8.57;;
6095;SDS011;25081;42.698;23.298;2023-07-16T09:51:39;10.00;;;8.90;;
6095;SDS011;25081;42.698;23.298;2023-07-16T09:53:49;15.07;;;9.47;;
6095;SDS011;25081;42.698;23.298;2023-07-16T09:56:00;9.93;;;8.13;;
6095;SDS011;25081;42.698;23.298;2023-07-16T09:58:10;11.00;;;8.77;;
6095;SDS011;25081;42.698;23.298;2023-07-16T10:00:21;11.73;;;8.10;;
6095;SDS011;25081;42.698;23.298;2023-07-16T10:02:33;9.30;;;8.30;;
6095;SDS011;25081;42.698;23.298;2023-07-16T10:04:43;11.30;;;8.40;;
6095;SDS011;25081;42.698;23.298;2023-07-16T10:06:55;9.50;;;8.60;;
6095;SDS011;25081;42.698;23.298;2023-07-16T10:09:05;9.60;;;8.10;;
6095;SDS011;25081;42.698;23.298;2023-07-16T10:11:16;11.23;;;9.00;;
6095;SDS011;25081;42.698;23.298;2023-07-16T10:13:27;11.00;;;9.30;;
6095;SDS011;25081;42.698;23.298;2023-07-16T10:15:37;10.80;;;9.80;;
6095;SDS011;25081;42.698;23.298;2023-07-16T10:17:50;14.33;;;9.90;;
6095;SDS011;25081;42.698;23.298;2023-07-16T10:20:01;9.93;;;8.30;;
6095;SDS011;25081;42.698;23.298;2023-07-16T10:22:12;11.73;;;9.87;;
6095;SDS011;25081;42.698;23.298;2023-07-16T10:24:23;8.83;;;8.03;;
6095;SDS011;25081;42.698;23.298;2023-07-16T10:26:34;14.33;;;9.83;;
6095;SDS011;25081;42.698;23.298;2023-07-16T10:28:44;12.00;;;9.03;;
6095;SDS011;25081;42.698;23.298;2023-07-16T10:30:55;12.33;;;9.53;;
6095;SDS011;25081;42.698;23.298;2023-07-16T10:33:11;12.53;;;10.10;;
6095;SDS011;25081;42.698;23.298;2023-07-16T10:35:22;10.47;;;9.23;;
6095;SDS011;25081;42.698;23.298;2023-07-16T10:37:32;13.30;;;10.07;;
6095;SDS011;25081;42.698;23.298;2023-07-16T10:39:47;10.83;;;9.70;;
6095;SDS011;25081;42.698;23.298;2023-07-16T10:41:57;14.47;;;10.20;;
6095;SDS011;25081;42.698;23.298;2023-07-16T10:44:08;10.93;;;9.70;;
6095;SDS011;25081;42.698;23.298;2023-07-16T10:46:20;10.40;;;9.30;;
6095;SDS011;25081;42.698;23.298;2023-07-16T10:48:30;14.70;;;9.90;;
6095;SDS011;25081;42.698;23.298;2023-07-16T10:50:40;10.50;;;9.40;;
6095;SDS011;25081;42.698;23.298;2023-07-16T10:52:52;12.80;;;10.20;;
6095;SDS011;25081;42.698;23.298;2023-07-16T10:55:02;13.33;;;9.90;;
6095;SDS011;25081;42.698;23.298;2023-07-16T10:57:14;16.70;;;10.63;;
6095;SDS011;25081;42.698;23.298;2023-07-16T10:59:25;15.30;;;10.90;;
6095;SDS011;25081;42.698;23.298;2023-07-16T11:01:35;12.63;;;9.50;;
6095;SDS011;25081;42.698;23.298;2023-07-16T11:03:46;12.00;;;9.70;;
6095;SDS011;25081;42.698;23.298;2023-07-16T11:05:57;10.57;;;9.40;;
6095;SDS011;25081;42.698;23.298;2023-07-16T11:08:07;12.97;;;10.23;;
6095;SDS011;25081;42.698;23.298;2023-07-16T11:10:18;15.30;;;10.77;;
6095;SDS011;25081;42.698;23.298;2023-07-16T11:12:28;11.17;;;10.10;;
6095;SDS011;25081;42.698;23.298;2023-07-16T11:14:42;12.60;;;11.33;;
6095;SDS011;25081;42.698;23.298;2023-07-16T11:16:52;14.13;;;11.10;;
6095;SDS011;25081;42.698;23.298;2023-07-16T11:19:03;15.00;;;11.13;;
6095;SDS011;25081;42.698;23.298;2023-07-16T11:21:14;17.10;;;10.70;;
6095;SDS011;25081;42.698;23.298;2023-07-16T11:23:24;12.63;;;11.30;;
6095;SDS011;25081;42.698;23.298;2023-07-16T11:25:35;14.87;;;10.13;;
6095;SDS011;25081;42.698;23.298;2023-07-16T11:27:46;11.93;;;10.70;;
6095;SDS011;25081;42.698;23.298;2023-07-16T11:29:56;11.47;;;9.73;;
6095;SDS011;25081;42.698;23.298;2023-07-16T11:32:07;12.77;;;10.80;;
6095;SDS011;25081;42.698;23.298;2023-07-16T11:34:20;12.60;;;10.60;;
6095;SDS011;25081;42.698;23.298;2023-07-16T11:36:30;13.03;;;9.77;;
6095;SDS011;25081;42.698;23.298;2023-07-16T11:38:41;16.90;;;10.73;;
6095;SDS011;25081;42.698;23.298;2023-07-16T11:40:51;12.80;;;9.70;;
6095;SDS011;25081;42.698;23.298;2023-07-16T11:43:08;13.47;;;10.80;;
6095;SDS011;25081;42.698;23.298;2023-07-16T11:45:19;13.20;;;10.07;;
6095;SDS011;25081;42.698;23.298;2023-07-16T11:47:29;12.43;;;10.20;;
6095;SDS011;25081;42.698;23.298;2023-07-16T11:49:39;13.63;;;9.83;;
6095;SDS011;25081;42.698;23.298;2023-07-16T11:51:50;11.20;;;10.10;;
6095;SDS011;25081;42.698;23.298;2023-07-16T11:54:01;12.23;;;9.73;;
6095;SDS011;25081;42.698;23.298;2023-07-16T11:56:11;11.17;;;10.07;;
6095;SDS011;25081;42.698;23.298;2023-07-16T11:58:22;11.47;;;9.60;;
6095;SDS011;25081;42.698;23.298;2023-07-16T12:00:32;16.73;;;10.43;;
6095;SDS011;25081;42.698;23.298;2023-07-16T12:02:43;13.83;;;10.70;;
6095;SDS011;25081;42.698;23.298;2023-07-16T12:04:54;12.80;;;9.63;;
6095;SDS011;25081;42.698;23.298;2023-07-16T12:07:04;14.90;;;10.80;;
6095;SDS011;25081;42.698;23.298;2023-07-16T12:09:15;14.30;;;10.53;;
6095;SDS011;25081;42.698;23.298;2023-07-16T12:11:25;13.10;;;10.63;;
6095;SDS011;25081;42.698;23.298;2023-07-16T12:13:36;11.83;;;10.27;;
6095;SDS011;25081;42.698;23.298;2023-07-16T12:15:46;13.30;;;10.30;;
6095;SDS011;25081;42.698;23.298;2023-07-16T12:17:57;13.30;;;10.00;;
6095;SDS011;25081;42.698;23.298;2023-07-16T12:20:08;12.57;;;11.23;;
6095;SDS011;25081;42.698;23.298;2023-07-16T12:22:20;13.03;;;9.93;;
6095;SDS011;25081;42.698;23.298;2023-07-16T12:24:30;11.00;;;10.00;;
6095;SDS011;25081;42.698;23.298;2023-07-16T12:26:41;10.87;;;9.77;;
6095;SDS011;25081;42.698;23.298;2023-07-16T12:28:51;11.63;;;9.20;;
6095;SDS011;25081;42.698;23.298;2023-07-16T12:31:02;12.43;;;9.20;;
6095;SDS011;25081;42.698;23.298;2023-07-16T12:33:12;10.83;;;9.70;;
6095;SDS011;25081;42.698;23.298;2023-07-16T12:35:22;10.97;;;9.70;;
6095;SDS011;25081;42.698;23.298;2023-07-16T12:37:33;10.23;;;9.17;;
6095;SDS011;25081;42.698;23.298;2023-07-16T12:39:44;14.63;;;9.13;;
6095;SDS011;25081;42.698;23.298;2023-07-16T12:41:54;10.07;;;8.83;;
6095;SDS011;25081;42.698;23.298;2023-07-16T12:44:05;10.80;;;9.50;;
6095;SDS011;25081;42.698;23.298;2023-07-16T12:46:15;12.23;;;10.80;;
6095;SDS011;25081;42.698;23.298;2023-07-16T12:48:26;11.13;;;9.00;;
6095;SDS011;25081;42.698;23.298;2023-07-16T12:50:36;10.57;;;9.43;;
6095;SDS011;25081;42.698;23.298;2023-07-16T12:52:47;11.00;;;9.77;;
6095;SDS011;25081;42.698;23.298;2023-07-16T12:54:57;12.23;;;9.20;;
6095;SDS011;25081;42.698;23.298;2023-07-16T12:57:08;10.73;;;9.63;;
6095;SDS011;25081;42.698;23.298;2023-07-16T12:59:18;11.07;;;9.90;;
6095;SDS011;25081;42.698;23.298;2023-07-16T13:01:29;13.03;;;10.00;;